sensor_id;sensor_type;location;lat;lon;timestamp;P1;durP1;ratioP1;P2;durP2;ratioP2
19887;SDS011;10106;51.332;12.336;2022-08-21T00:01:23;37.47;;;18.53;;
19887;SDS011;10106;51.332;12.336;2022-08-21T00:03:50;35.93;;;18.23;;
19887;SDS011;10106;51.332;12.336;2022-08-21T00:06:16;36.17;;;18.23;;
19887;SDS011;10106;51.332;12.336;2022-08-21T00:08:43;36.07;;;16.60;;
19887;SDS011;10106;51.332;12.336;2022-08-21T00:11:09;40.80;;;22.27;;
19887;SDS011;10106;51.332;12.336;2022-08-21T00:13:35;34.30;;;17.57;;
19887;SDS011;10106;51.332;12.336;2022-08-21T00:16:01;36.23;;;18.67;;
19887;SDS011;10106;51.332;12.336;2022-08-21T00:18:30;35.83;;;15.27;;
19887;SDS011;10106;51.332;12.336;2022-08-21T00:20:56;26.70;;;14.33;;
19887;SDS011;10106;51.332;12.336;2022-08-21T00:23:21;34.83;;;17.17;;
19887;SDS011;10106;51.332;12.336;2022-08-21T00:25:47;33.60;;;15.20;;
19887;SDS011;10106;51.332;12.336;2022-08-21T00:28:14;30.97;;;17.30;;
19887;SDS011;10106;51.332;12.336;2022-08-21T00:30:40;26.70;;;14.00;;
19887;SDS011;10106;51.332;12.336;2022-08-21T00:33:07;25.40;;;15.97;;
19887;SDS011;10106;51.332;12.336;2022-08-21T00:35:34;28.80;;;16.20;;
19887;SDS011;10106;51.332;12.336;2022-08-21T00:38:06;26.20;;;14.03;;
19887;SDS011;10106;51.332;12.336;2022-08-21T00:40:44;38.60;;;17.70;;
19887;SDS011;10106;51.332;12.336;2022-08-21T00:43:20;27.47;;;14.40;;
19887;SDS011;10106;51.332;12.336;2022-08-21T00:45:48;22.57;;;13.50;;
19887;SDS011;10106;51.332;12.336;2022-08-21T00:48:15;23.13;;;13.87;;
19887;SDS011;10106;51.332;12.336;2022-08-21T00:51:16;19.40;;;12.80;;
19887;SDS011;10106;51.332;12.336;2022-08-21T00:53:40;22.40;;;12.77;;
19887;SDS011;10106;51.332;12.336;2022-08-21T00:56:10;24.80;;;11.87;;
19887;SDS011;10106;51.332;12.336;2022-08-21T00:58:37;21.70;;;11.50;;
19887;SDS011;10106;51.332;12.336;2022-08-21T01:01:06;24.17;;;12.73;;
19887;SDS011;10106;51.332;12.336;2022-08-21T01:03:32;22.23;;;13.00;;
19887;SDS011;10106;51.332;12.336;2022-08-21T01:05:59;21.07;;;12.27;;
19887;SDS011;10106;51.332;12.336;2022-08-21T01:08:24;20.17;;;11.87;;
19887;SDS011;10106;51.332;12.336;2022-08-21T01:10:52;21.50;;;11.93;;
19887;SDS011;10106;51.332;12.336;2022-08-21T01:13:18;23.37;;;12.07;;
19887;SDS011;10106;51.332;12.336;2022-08-21T01:15:48;22.30;;;11.60;;
19887;SDS011;10106;51.332;12.336;2022-08-21T01:18:17;24.83;;;12.83;;
19887;SDS011;10106;51.332;12.336;2022-08-21T01:23:29;18.03;;;11.27;;
19887;SDS011;10106;51.332;12.336;2022-08-21T01:25:55;20.67;;;11.83;;
19887;SDS011;10106;51.332;12.336;2022-08-21T01:28:21;22.43;;;12.53;;
19887;SDS011;10106;51.332;12.336;2022-08-21T01:30:48;18.40;;;10.23;;
19887;SDS011;10106;51.332;12.336;2022-08-21T01:33:16;20.13;;;12.67;;
19887;SDS011;10106;51.332;12.336;2022-08-21T01:35:43;23.40;;;12.47;;
19887;SDS011;10106;51.332;12.336;2022-08-21T01:38:08;20.50;;;11.47;;
19887;SDS011;10106;51.332;12.336;2022-08-21T01:40:34;20.27;;;12.47;;
19887;SDS011;10106;51.332;12.336;2022-08-21T01:43:00;18.37;;;13.00;;
19887;SDS011;10106;51.332;12.336;2022-08-21T01:45:27;24.77;;;13.80;;
19887;SDS011;10106;51.332;12.336;2022-08-21T01:47:53;20.73;;;10.93;;
19887;SDS011;10106;51.332;12.336;2022-08-21T01:50:19;22.90;;;11.70;;
19887;SDS011;10106;51.332;12.336;2022-08-21T01:52:45;21.40;;;13.20;;
19887;SDS011;10106;51.332;12.336;2022-08-21T01:55:12;20.67;;;11.60;;
19887;SDS011;10106;51.332;12.336;2022-08-21T01:57:38;16.30;;;10.53;;
19887;SDS011;10106;51.332;12.336;2022-08-21T02:00:06;18.90;;;11.90;;
19887;SDS011;10106;51.332;12.336;2022-08-21T02:02:34;17.77;;;10.37;;
19887;SDS011;10106;51.332;12.336;2022-08-21T02:05:00;19.97;;;10.53;;
19887;SDS011;10106;51.332;12.336;2022-08-21T02:07:26;21.63;;;11.57;;
19887;SDS011;10106;51.332;12.336;2022-08-21T02:09:51;17.03;;;9.80;;
19887;SDS011;10106;51.332;12.336;2022-08-21T02:12:17;18.90;;;11.70;;
19887;SDS011;10106;51.332;12.336;2022-08-21T02:14:42;23.70;;;11.20;;
19887;SDS011;10106;51.332;12.336;2022-08-21T02:17:08;22.53;;;11.67;;
19887;SDS011;10106;51.332;12.336;2022-08-21T02:19:34;20.93;;;10.23;;
19887;SDS011;10106;51.332;12.336;2022-08-21T02:21:59;17.97;;;10.17;;
19887;SDS011;10106;51.332;12.336;2022-08-21T02:24:25;15.90;;;9.43;;
19887;SDS011;10106;51.332;12.336;2022-08-21T02:26:50;17.47;;;9.80;;
19887;SDS011;10106;51.332;12.336;2022-08-21T02:29:16;18.10;;;10.30;;
19887;SDS011;10106;51.332;12.336;2022-08-21T02:31:41;14.87;;;9.00;;
19887;SDS011;10106;51.332;12.336;2022-08-21T02:34:07;17.70;;;8.90;;
19887;SDS011;10106;51.332;12.336;2022-08-21T02:36:33;16.90;;;9.87;;
19887;SDS011;10106;51.332;12.336;2022-08-21T02:38:59;13.73;;;7.70;;
19887;SDS011;10106;51.332;12.336;2022-08-21T02:41:25;15.87;;;9.40;;
19887;SDS011;10106;51.332;12.336;2022-08-21T02:43:50;14.57;;;8.20;;
19887;SDS011;10106;51.332;12.336;2022-08-21T02:46:17;10.77;;;7.23;;
19887;SDS011;10106;51.332;12.336;2022-08-21T02:48:44;16.23;;;8.93;;
19887;SDS011;10106;51.332;12.336;2022-08-21T02:51:16;13.90;;;8.60;;
19887;SDS011;10106;51.332;12.336;2022-08-21T02:53:43;18.53;;;9.03;;
19887;SDS011;10106;51.332;12.336;2022-08-21T02:56:10;16.30;;;8.53;;
19887;SDS011;10106;51.332;12.336;2022-08-21T02:58:41;13.60;;;8.93;;
19887;SDS011;10106;51.332;12.336;2022-08-21T03:01:09;13.23;;;7.87;;
19887;SDS011;10106;51.332;12.336;2022-08-21T03:03:36;13.87;;;8.80;;
19887;SDS011;10106;51.332;12.336;2022-08-21T03:06:03;15.20;;;7.23;;
19887;SDS011;10106;51.332;12.336;2022-08-21T03:08:30;15.80;;;8.37;;
19887;SDS011;10106;51.332;12.336;2022-08-21T03:10:56;11.13;;;6.73;;
19887;SDS011;10106;51.332;12.336;2022-08-21T03:13:22;12.07;;;7.97;;
19887;SDS011;10106;51.332;12.336;2022-08-21T03:15:49;16.50;;;7.00;;
19887;SDS011;10106;51.332;12.336;2022-08-21T03:18:15;13.23;;;7.17;;
19887;SDS011;10106;51.332;12.336;2022-08-21T03:20:41;9.93;;;6.60;;
19887;SDS011;10106;51.332;12.336;2022-08-21T03:23:08;9.07;;;6.73;;
19887;SDS011;10106;51.332;12.336;2022-08-21T03:25:34;12.30;;;6.67;;
19887;SDS011;10106;51.332;12.336;2022-08-21T03:28:00;11.73;;;7.23;;
19887;SDS011;10106;51.332;12.336;2022-08-21T03:30:27;11.60;;;6.50;;
19887;SDS011;10106;51.332;12.336;2022-08-21T03:32:53;10.80;;;7.50;;
19887;SDS011;10106;51.332;12.336;2022-08-21T03:35:19;9.30;;;6.33;;
19887;SDS011;10106;51.332;12.336;2022-08-21T03:37:45;10.63;;;6.80;;
19887;SDS011;10106;51.332;12.336;2022-08-21T03:40:12;12.03;;;6.07;;
19887;SDS011;10106;51.332;12.336;2022-08-21T03:42:40;7.40;;;5.53;;
19887;SDS011;10106;51.332;12.336;2022-08-21T03:45:06;10.80;;;6.27;;
19887;SDS011;10106;51.332;12.336;2022-08-21T03:47:33;10.37;;;5.23;;
19887;SDS011;10106;51.332;12.336;2022-08-21T03:49:58;5.53;;;4.47;;
19887;SDS011;10106;51.332;12.336;2022-08-21T03:52:25;6.30;;;4.87;;
19887;SDS011;10106;51.332;12.336;2022-08-21T03:54:50;9.73;;;6.17;;
19887;SDS011;10106;51.332;12.336;2022-08-21T03:57:16;6.43;;;4.60;;
19887;SDS011;10106;51.332;12.336;2022-08-21T03:59:42;10.20;;;5.73;;
19887;SDS011;10106;51.332;12.336;2022-08-21T04:02:08;7.20;;;4.97;;
19887;SDS011;10106;51.332;12.336;2022-08-21T04:04:35;6.97;;;5.20;;
19887;SDS011;10106;51.332;12.336;2022-08-21T04:07:00;8.87;;;5.33;;
19887;SDS011;10106;51.332;12.336;2022-08-21T04:09:27;7.70;;;4.70;;
19887;SDS011;10106;51.332;12.336;2022-08-21T04:11:52;6.43;;;5.23;;
19887;SDS011;10106;51.332;12.336;2022-08-21T04:14:18;8.10;;;4.97;;
19887;SDS011;10106;51.332;12.336;2022-08-21T04:16:44;9.30;;;4.50;;
19887;SDS011;10106;51.332;12.336;2022-08-21T04:19:11;6.93;;;4.97;;
19887;SDS011;10106;51.332;12.336;2022-08-21T04:21:39;6.83;;;4.70;;
19887;SDS011;10106;51.332;12.336;2022-08-21T04:24:06;8.53;;;4.60;;
19887;SDS011;10106;51.332;12.336;2022-08-21T04:26:42;6.30;;;4.83;;
19887;SDS011;10106;51.332;12.336;2022-08-21T04:29:07;7.50;;;4.77;;
19887;SDS011;10106;51.332;12.336;2022-08-21T04:31:33;5.57;;;3.97;;
19887;SDS011;10106;51.332;12.336;2022-08-21T04:34:00;12.73;;;4.40;;
19887;SDS011;10106;51.332;12.336;2022-08-21T04:36:25;10.90;;;5.33;;
19887;SDS011;10106;51.332;12.336;2022-08-21T04:38:51;5.63;;;4.17;;
19887;SDS011;10106;51.332;12.336;2022-08-21T04:41:17;7.00;;;4.47;;
19887;SDS011;10106;51.332;12.336;2022-08-21T04:43:43;5.83;;;3.70;;
19887;SDS011;10106;51.332;12.336;2022-08-21T04:46:09;7.30;;;4.43;;
19887;SDS011;10106;51.332;12.336;2022-08-21T04:48:34;6.83;;;4.73;;
19887;SDS011;10106;51.332;12.336;2022-08-21T04:51:11;7.83;;;3.83;;
19887;SDS011;10106;51.332;12.336;2022-08-21T04:56:28;6.50;;;4.27;;
19887;SDS011;10106;51.332;12.336;2022-08-21T04:58:57;6.03;;;4.30;;
19887;SDS011;10106;51.332;12.336;2022-08-21T05:06:36;5.20;;;3.63;;
19887;SDS011;10106;51.332;12.336;2022-08-21T05:09:03;4.53;;;4.10;;
19887;SDS011;10106;51.332;12.336;2022-08-21T05:11:30;11.67;;;3.67;;
19887;SDS011;10106;51.332;12.336;2022-08-21T05:13:57;10.57;;;3.70;;
19887;SDS011;10106;51.332;12.336;2022-08-21T05:16:23;10.37;;;4.77;;
19887;SDS011;10106;51.332;12.336;2022-08-21T05:18:49;9.43;;;4.27;;
19887;SDS011;10106;51.332;12.336;2022-08-21T05:21:15;5.03;;;4.00;;
19887;SDS011;10106;51.332;12.336;2022-08-21T05:23:40;6.27;;;4.47;;
19887;SDS011;10106;51.332;12.336;2022-08-21T05:26:06;4.73;;;4.23;;
19887;SDS011;10106;51.332;12.336;2022-08-21T05:28:31;5.20;;;4.10;;
19887;SDS011;10106;51.332;12.336;2022-08-21T05:30:57;13.50;;;4.83;;
19887;SDS011;10106;51.332;12.336;2022-08-21T05:33:23;6.53;;;3.57;;
19887;SDS011;10106;51.332;12.336;2022-08-21T05:35:49;6.77;;;4.40;;
19887;SDS011;10106;51.332;12.336;2022-08-21T05:38:16;6.90;;;4.10;;
19887;SDS011;10106;51.332;12.336;2022-08-21T05:40:42;5.90;;;4.30;;
19887;SDS011;10106;51.332;12.336;2022-08-21T05:43:08;8.80;;;4.37;;
19887;SDS011;10106;51.332;12.336;2022-08-21T05:45:34;9.50;;;4.00;;
19887;SDS011;10106;51.332;12.336;2022-08-21T05:48:33;3.90;;;3.50;;
19887;SDS011;10106;51.332;12.336;2022-08-21T05:50:52;10.33;;;4.30;;
19887;SDS011;10106;51.332;12.336;2022-08-21T05:53:18;4.57;;;3.80;;
19887;SDS011;10106;51.332;12.336;2022-08-21T05:55:45;7.10;;;4.60;;
19887;SDS011;10106;51.332;12.336;2022-08-21T05:58:11;7.80;;;4.60;;
19887;SDS011;10106;51.332;12.336;2022-08-21T06:00:42;6.67;;;4.10;;
19887;SDS011;10106;51.332;12.336;2022-08-21T06:03:16;4.57;;;3.67;;
19887;SDS011;10106;51.332;12.336;2022-08-21T06:05:45;5.90;;;4.03;;
19887;SDS011;10106;51.332;12.336;2022-08-21T06:08:11;5.30;;;3.90;;
19887;SDS011;10106;51.332;12.336;2022-08-21T06:10:37;3.87;;;3.57;;
19887;SDS011;10106;51.332;12.336;2022-08-21T06:13:03;7.83;;;4.13;;
19887;SDS011;10106;51.332;12.336;2022-08-21T06:15:29;4.40;;;4.00;;
19887;SDS011;10106;51.332;12.336;2022-08-21T06:17:55;4.10;;;3.70;;
19887;SDS011;10106;51.332;12.336;2022-08-21T06:20:21;8.07;;;4.30;;
19887;SDS011;10106;51.332;12.336;2022-08-21T06:22:47;4.63;;;4.07;;
19887;SDS011;10106;51.332;12.336;2022-08-21T06:25:12;11.73;;;3.90;;
19887;SDS011;10106;51.332;12.336;2022-08-21T06:27:38;3.93;;;3.50;;
19887;SDS011;10106;51.332;12.336;2022-08-21T06:30:05;5.70;;;3.77;;
19887;SDS011;10106;51.332;12.336;2022-08-21T06:32:31;4.70;;;3.70;;
19887;SDS011;10106;51.332;12.336;2022-08-21T06:34:57;4.80;;;3.70;;
19887;SDS011;10106;51.332;12.336;2022-08-21T06:37:22;10.83;;;4.23;;
19887;SDS011;10106;51.332;12.336;2022-08-21T06:39:48;10.27;;;4.03;;
19887;SDS011;10106;51.332;12.336;2022-08-21T06:42:14;6.90;;;4.07;;
19887;SDS011;10106;51.332;12.336;2022-08-21T06:44:41;4.30;;;3.43;;
19887;SDS011;10106;51.332;12.336;2022-08-21T06:47:06;8.83;;;3.80;;
19887;SDS011;10106;51.332;12.336;2022-08-21T06:49:32;7.40;;;4.30;;
19887;SDS011;10106;51.332;12.336;2022-08-21T06:51:58;7.60;;;3.87;;
19887;SDS011;10106;51.332;12.336;2022-08-21T06:54:23;10.33;;;4.90;;
19887;SDS011;10106;51.332;12.336;2022-08-21T06:56:49;13.20;;;3.70;;
19887;SDS011;10106;51.332;12.336;2022-08-21T06:59:15;4.40;;;3.57;;
19887;SDS011;10106;51.332;12.336;2022-08-21T07:01:40;12.93;;;3.63;;
19887;SDS011;10106;51.332;12.336;2022-08-21T07:04:06;5.53;;;4.00;;
19887;SDS011;10106;51.332;12.336;2022-08-21T07:06:32;3.93;;;3.27;;
19887;SDS011;10106;51.332;12.336;2022-08-21T07:08:58;4.80;;;3.27;;
19887;SDS011;10106;51.332;12.336;2022-08-21T07:11:24;6.37;;;3.43;;
19887;SDS011;10106;51.332;12.336;2022-08-21T07:13:50;8.17;;;4.33;;
19887;SDS011;10106;51.332;12.336;2022-08-21T07:16:18;3.97;;;3.67;;
19887;SDS011;10106;51.332;12.336;2022-08-21T07:18:44;9.23;;;4.60;;
19887;SDS011;10106;51.332;12.336;2022-08-21T07:21:10;6.93;;;3.50;;
19887;SDS011;10106;51.332;12.336;2022-08-21T07:23:43;2.87;;;2.57;;
19887;SDS011;10106;51.332;12.336;2022-08-21T07:26:10;5.13;;;2.93;;
19887;SDS011;10106;51.332;12.336;2022-08-21T07:28:37;3.53;;;2.77;;
19887;SDS011;10106;51.332;12.336;2022-08-21T07:31:03;5.93;;;2.73;;
19887;SDS011;10106;51.332;12.336;2022-08-21T07:33:30;2.73;;;2.53;;
19887;SDS011;10106;51.332;12.336;2022-08-21T07:35:57;5.13;;;3.30;;
19887;SDS011;10106;51.332;12.336;2022-08-21T07:38:23;4.27;;;2.70;;
19887;SDS011;10106;51.332;12.336;2022-08-21T07:40:49;6.83;;;2.80;;
19887;SDS011;10106;51.332;12.336;2022-08-21T07:43:17;3.50;;;2.97;;
19887;SDS011;10106;51.332;12.336;2022-08-21T07:45:43;2.67;;;2.40;;
19887;SDS011;10106;51.332;12.336;2022-08-21T07:48:10;6.30;;;3.90;;
19887;SDS011;10106;51.332;12.336;2022-08-21T07:50:36;4.80;;;3.30;;
19887;SDS011;10106;51.332;12.336;2022-08-21T07:53:01;2.43;;;2.23;;
19887;SDS011;10106;51.332;12.336;2022-08-21T07:55:28;5.40;;;2.97;;
19887;SDS011;10106;51.332;12.336;2022-08-21T07:57:53;3.80;;;2.40;;
19887;SDS011;10106;51.332;12.336;2022-08-21T08:00:20;6.17;;;2.57;;
19887;SDS011;10106;51.332;12.336;2022-08-21T08:02:48;3.10;;;2.80;;
19887;SDS011;10106;51.332;12.336;2022-08-21T08:05:16;4.67;;;3.10;;
19887;SDS011;10106;51.332;12.336;2022-08-21T08:07:44;3.53;;;2.40;;
19887;SDS011;10106;51.332;12.336;2022-08-21T08:10:11;4.00;;;2.83;;
19887;SDS011;10106;51.332;12.336;2022-08-21T08:12:37;4.00;;;2.70;;
19887;SDS011;10106;51.332;12.336;2022-08-21T08:15:08;5.03;;;3.20;;
19887;SDS011;10106;51.332;12.336;2022-08-21T08:17:37;3.30;;;2.90;;
19887;SDS011;10106;51.332;12.336;2022-08-21T08:20:03;10.40;;;2.90;;
19887;SDS011;10106;51.332;12.336;2022-08-21T08:22:33;4.80;;;2.97;;
19887;SDS011;10106;51.332;12.336;2022-08-21T08:25:00;3.90;;;2.70;;
19887;SDS011;10106;51.332;12.336;2022-08-21T08:27:26;6.50;;;2.50;;
19887;SDS011;10106;51.332;12.336;2022-08-21T08:29:52;4.87;;;2.40;;
19887;SDS011;10106;51.332;12.336;2022-08-21T08:32:18;4.67;;;2.67;;
19887;SDS011;10106;51.332;12.336;2022-08-21T08:34:44;4.40;;;3.00;;
19887;SDS011;10106;51.332;12.336;2022-08-21T08:37:11;4.60;;;2.40;;
19887;SDS011;10106;51.332;12.336;2022-08-21T08:39:37;3.43;;;2.10;;
19887;SDS011;10106;51.332;12.336;2022-08-21T08:44:38;3.10;;;2.80;;
19887;SDS011;10106;51.332;12.336;2022-08-21T08:47:06;4.47;;;2.57;;
19887;SDS011;10106;51.332;12.336;2022-08-21T08:49:37;4.00;;;2.93;;
19887;SDS011;10106;51.332;12.336;2022-08-21T08:52:23;2.90;;;2.60;;
19887;SDS011;10106;51.332;12.336;2022-08-21T08:55:12;4.20;;;2.80;;
19887;SDS011;10106;51.332;12.336;2022-08-21T08:57:59;5.00;;;2.30;;
19887;SDS011;10106;51.332;12.336;2022-08-21T09:00:27;2.50;;;2.30;;
19887;SDS011;10106;51.332;12.336;2022-08-21T09:02:54;2.70;;;1.92;;
19887;SDS011;10106;51.332;12.336;2022-08-21T09:05:23;4.50;;;2.30;;
19887;SDS011;10106;51.332;12.336;2022-08-21T09:18:59;2.63;;;1.77;;
19887;SDS011;10106;51.332;12.336;2022-08-21T09:24:38;2.47;;;2.28;;
19887;SDS011;10106;51.332;12.336;2022-08-21T09:27:19;2.47;;;2.13;;
19887;SDS011;10106;51.332;12.336;2022-08-21T09:29:48;5.28;;;2.40;;
19887;SDS011;10106;51.332;12.336;2022-08-21T09:37:34;3.00;;;1.92;;
19887;SDS011;10106;51.332;12.336;2022-08-21T09:42:57;3.97;;;1.85;;
19887;SDS011;10106;51.332;12.336;2022-08-21T09:45:29;3.13;;;2.28;;
19887;SDS011;10106;51.332;12.336;2022-08-21T09:47:56;3.90;;;1.90;;
19887;SDS011;10106;51.332;12.336;2022-08-21T09:50:32;2.70;;;2.50;;
19887;SDS011;10106;51.332;12.336;2022-08-21T09:52:58;2.10;;;1.90;;
19887;SDS011;10106;51.332;12.336;2022-08-21T09:58:37;7.00;;;1.88;;
19887;SDS011;10106;51.332;12.336;2022-08-21T10:01:05;2.13;;;1.70;;
19887;SDS011;10106;51.332;12.336;2022-08-21T10:03:31;6.78;;;2.10;;
19887;SDS011;10106;51.332;12.336;2022-08-21T10:05:58;4.00;;;2.10;;
19887;SDS011;10106;51.332;12.336;2022-08-21T10:08:27;2.70;;;1.65;;
19887;SDS011;10106;51.332;12.336;2022-08-21T10:10:55;1.92;;;1.80;;
19887;SDS011;10106;51.332;12.336;2022-08-21T10:13:36;1.75;;;1.55;;
19887;SDS011;10106;51.332;12.336;2022-08-21T10:18:46;3.72;;;1.83;;
19887;SDS011;10106;51.332;12.336;2022-08-21T10:21:33;3.70;;;1.92;;
19887;SDS011;10106;51.332;12.336;2022-08-21T10:26:47;3.15;;;1.67;;
19887;SDS011;10106;51.332;12.336;2022-08-21T10:29:46;2.55;;;1.88;;
19887;SDS011;10106;51.332;12.336;2022-08-21T10:32:23;4.93;;;3.03;;
19887;SDS011;10106;51.332;12.336;2022-08-21T10:37:48;2.03;;;1.70;;
19887;SDS011;10106;51.332;12.336;2022-08-21T10:49:13;8.13;;;1.90;;
19887;SDS011;10106;51.332;12.336;2022-08-21T10:54:56;4.50;;;2.10;;
19887;SDS011;10106;51.332;12.336;2022-08-21T10:57:49;8.07;;;3.03;;
19887;SDS011;10106;51.332;12.336;2022-08-21T11:00:19;2.67;;;2.17;;
19887;SDS011;10106;51.332;12.336;2022-08-21T11:02:55;2.43;;;2.20;;
19887;SDS011;10106;51.332;12.336;2022-08-21T11:05:34;6.50;;;1.87;;
19887;SDS011;10106;51.332;12.336;2022-08-21T11:08:10;2.40;;;2.20;;
19887;SDS011;10106;51.332;12.336;2022-08-21T11:16:32;3.20;;;1.97;;
19887;SDS011;10106;51.332;12.336;2022-08-21T11:27:26;9.70;;;2.10;;
19887;SDS011;10106;51.332;12.336;2022-08-21T11:29:39;6.07;;;2.10;;
19887;SDS011;10106;51.332;12.336;2022-08-21T11:34:47;5.03;;;2.53;;
19887;SDS011;10106;51.332;12.336;2022-08-21T11:40:26;1.80;;;1.70;;
19887;SDS011;10106;51.332;12.336;2022-08-21T11:43:09;2.10;;;2.00;;
19887;SDS011;10106;51.332;12.336;2022-08-21T11:45:50;2.10;;;1.90;;
19887;SDS011;10106;51.332;12.336;2022-08-21T11:48:40;2.30;;;1.90;;
19887;SDS011;10106;51.332;12.336;2022-08-21T11:51:30;2.90;;;2.30;;
19887;SDS011;10106;51.332;12.336;2022-08-21T11:54:03;5.47;;;2.27;;
19887;SDS011;10106;51.332;12.336;2022-08-21T11:56:39;3.13;;;1.87;;
19887;SDS011;10106;51.332;12.336;2022-08-21T11:59:10;4.10;;;2.17;;
19887;SDS011;10106;51.332;12.336;2022-08-21T12:01:42;4.57;;;2.00;;
19887;SDS011;10106;51.332;12.336;2022-08-21T12:04:16;6.07;;;2.27;;
19887;SDS011;10106;51.332;12.336;2022-08-21T12:07:09;2.27;;;1.70;;
19887;SDS011;10106;51.332;12.336;2022-08-21T12:09:50;7.50;;;2.30;;
19887;SDS011;10106;51.332;12.336;2022-08-21T12:12:29;3.70;;;2.33;;
19887;SDS011;10106;51.332;12.336;2022-08-21T12:15:30;5.70;;;2.60;;
19887;SDS011;10106;51.332;12.336;2022-08-21T12:23:25;3.97;;;2.33;;
19887;SDS011;10106;51.332;12.336;2022-08-21T12:26:01;4.03;;;2.10;;
19887;SDS011;10106;51.332;12.336;2022-08-21T12:28:39;3.17;;;2.63;;
19887;SDS011;10106;51.332;12.336;2022-08-21T12:31:16;2.60;;;2.17;;
19887;SDS011;10106;51.332;12.336;2022-08-21T12:34:00;5.00;;;2.10;;
19887;SDS011;10106;51.332;12.336;2022-08-21T12:36:38;4.97;;;2.30;;
19887;SDS011;10106;51.332;12.336;2022-08-21T12:39:13;3.00;;;2.35;;
19887;SDS011;10106;51.332;12.336;2022-08-21T12:41:47;2.58;;;2.38;;
19887;SDS011;10106;51.332;12.336;2022-08-21T12:44:21;4.20;;;2.60;;
19887;SDS011;10106;51.332;12.336;2022-08-21T12:46:57;4.07;;;2.33;;
19887;SDS011;10106;51.332;12.336;2022-08-21T12:54:42;18.83;;;10.30;;
19887;SDS011;10106;51.332;12.336;2022-08-21T12:57:09;3.70;;;2.23;;
19887;SDS011;10106;51.332;12.336;2022-08-21T12:59:44;4.10;;;2.37;;
19887;SDS011;10106;51.332;12.336;2022-08-21T13:02:15;4.13;;;2.77;;
19887;SDS011;10106;51.332;12.336;2022-08-21T13:04:45;4.23;;;2.30;;
19887;SDS011;10106;51.332;12.336;2022-08-21T13:07:13;3.07;;;2.20;;
19887;SDS011;10106;51.332;12.336;2022-08-21T13:09:46;3.77;;;2.60;;
19887;SDS011;10106;51.332;12.336;2022-08-21T13:12:19;4.70;;;2.50;;
19887;SDS011;10106;51.332;12.336;2022-08-21T13:14:46;2.90;;;2.70;;
19887;SDS011;10106;51.332;12.336;2022-08-21T13:17:16;2.53;;;2.33;;
19887;SDS011;10106;51.332;12.336;2022-08-21T13:19:52;5.90;;;2.60;;
19887;SDS011;10106;51.332;12.336;2022-08-21T13:22:32;3.70;;;3.00;;
19887;SDS011;10106;51.332;12.336;2022-08-21T13:25:09;4.20;;;2.17;;
19887;SDS011;10106;51.332;12.336;2022-08-21T13:27:36;5.13;;;2.30;;
19887;SDS011;10106;51.332;12.336;2022-08-21T13:32:30;6.33;;;2.67;;
19887;SDS011;10106;51.332;12.336;2022-08-21T13:34:57;5.23;;;2.10;;
19887;SDS011;10106;51.332;12.336;2022-08-21T13:37:24;2.80;;;2.50;;
19887;SDS011;10106;51.332;12.336;2022-08-21T13:39:53;3.20;;;2.40;;
19887;SDS011;10106;51.332;12.336;2022-08-21T13:42:19;2.57;;;2.37;;
19887;SDS011;10106;51.332;12.336;2022-08-21T13:44:46;2.33;;;2.23;;
19887;SDS011;10106;51.332;12.336;2022-08-21T13:47:13;7.23;;;2.10;;
19887;SDS011;10106;51.332;12.336;2022-08-21T13:49:42;2.47;;;2.27;;
19887;SDS011;10106;51.332;12.336;2022-08-21T13:52:15;10.53;;;3.13;;
19887;SDS011;10106;51.332;12.336;2022-08-21T13:54:51;2.30;;;1.97;;
19887;SDS011;10106;51.332;12.336;2022-08-21T13:57:27;3.07;;;2.73;;
19887;SDS011;10106;51.332;12.336;2022-08-21T14:02:46;4.10;;;2.53;;
19887;SDS011;10106;51.332;12.336;2022-08-21T14:05:15;8.50;;;2.47;;
19887;SDS011;10106;51.332;12.336;2022-08-21T14:07:45;3.13;;;2.13;;
19887;SDS011;10106;51.332;12.336;2022-08-21T14:12:46;5.50;;;2.80;;
19887;SDS011;10106;51.332;12.336;2022-08-21T14:15:23;5.30;;;2.63;;
19887;SDS011;10106;51.332;12.336;2022-08-21T14:17:50;6.63;;;3.20;;
19887;SDS011;10106;51.332;12.336;2022-08-21T14:20:33;10.57;;;2.40;;
19887;SDS011;10106;51.332;12.336;2022-08-21T14:23:00;2.40;;;2.10;;
19887;SDS011;10106;51.332;12.336;2022-08-21T14:25:28;2.73;;;2.20;;
19887;SDS011;10106;51.332;12.336;2022-08-21T14:28:14;2.67;;;2.47;;
19887;SDS011;10106;51.332;12.336;2022-08-21T14:30:45;3.57;;;2.20;;
19887;SDS011;10106;51.332;12.336;2022-08-21T14:33:12;6.50;;;2.70;;
19887;SDS011;10106;51.332;12.336;2022-08-21T14:35:44;3.93;;;2.43;;
19887;SDS011;10106;51.332;12.336;2022-08-21T14:38:14;7.87;;;2.57;;
19887;SDS011;10106;51.332;12.336;2022-08-21T14:40:41;4.27;;;2.60;;
19887;SDS011;10106;51.332;12.336;2022-08-21T14:43:08;2.60;;;2.40;;
19887;SDS011;10106;51.332;12.336;2022-08-21T14:45:34;4.13;;;2.30;;
19887;SDS011;10106;51.332;12.336;2022-08-21T14:48:02;4.43;;;2.10;;
19887;SDS011;10106;51.332;12.336;2022-08-21T14:50:28;4.40;;;2.13;;
19887;SDS011;10106;51.332;12.336;2022-08-21T14:52:54;5.13;;;2.50;;
19887;SDS011;10106;51.332;12.336;2022-08-21T14:55:20;3.20;;;2.40;;
19887;SDS011;10106;51.332;12.336;2022-08-21T14:57:47;2.47;;;1.80;;
19887;SDS011;10106;51.332;12.336;2022-08-21T15:00:16;4.53;;;1.73;;
19887;SDS011;10106;51.332;12.336;2022-08-21T15:02:46;2.33;;;2.10;;
19887;SDS011;10106;51.332;12.336;2022-08-21T15:05:12;3.83;;;2.77;;
19887;SDS011;10106;51.332;12.336;2022-08-21T15:07:38;8.70;;;4.93;;
19887;SDS011;10106;51.332;12.336;2022-08-21T15:10:04;3.47;;;2.90;;
19887;SDS011;10106;51.332;12.336;2022-08-21T15:12:31;6.83;;;3.57;;
19887;SDS011;10106;51.332;12.336;2022-08-21T15:14:57;3.07;;;2.20;;
19887;SDS011;10106;51.332;12.336;2022-08-21T15:17:22;3.73;;;2.10;;
19887;SDS011;10106;51.332;12.336;2022-08-21T15:19:48;9.13;;;2.50;;
19887;SDS011;10106;51.332;12.336;2022-08-21T15:22:14;9.10;;;2.20;;
19887;SDS011;10106;51.332;12.336;2022-08-21T15:24:43;3.90;;;2.50;;
19887;SDS011;10106;51.332;12.336;2022-08-21T15:27:09;4.73;;;2.53;;
19887;SDS011;10106;51.332;12.336;2022-08-21T15:29:35;2.80;;;2.37;;
19887;SDS011;10106;51.332;12.336;2022-08-21T15:32:14;2.90;;;2.13;;
19887;SDS011;10106;51.332;12.336;2022-08-21T15:34:49;4.23;;;2.50;;
19887;SDS011;10106;51.332;12.336;2022-08-21T15:37:16;2.70;;;2.50;;
19887;SDS011;10106;51.332;12.336;2022-08-21T15:39:42;6.40;;;2.87;;
19887;SDS011;10106;51.332;12.336;2022-08-21T15:42:08;5.50;;;2.07;;
19887;SDS011;10106;51.332;12.336;2022-08-21T15:44:35;8.77;;;2.70;;
19887;SDS011;10106;51.332;12.336;2022-08-21T15:47:01;4.63;;;2.50;;
19887;SDS011;10106;51.332;12.336;2022-08-21T15:49:27;3.43;;;2.17;;
19887;SDS011;10106;51.332;12.336;2022-08-21T15:51:53;2.53;;;2.33;;
19887;SDS011;10106;51.332;12.336;2022-08-21T15:54:18;3.00;;;2.67;;
19887;SDS011;10106;51.332;12.336;2022-08-21T15:56:44;2.73;;;2.40;;
19887;SDS011;10106;51.332;12.336;2022-08-21T15:59:14;3.43;;;2.40;;
19887;SDS011;10106;51.332;12.336;2022-08-21T16:01:43;3.53;;;2.23;;
19887;SDS011;10106;51.332;12.336;2022-08-21T16:04:20;2.63;;;2.07;;
19887;SDS011;10106;51.332;12.336;2022-08-21T16:06:48;4.20;;;2.10;;
19887;SDS011;10106;51.332;12.336;2022-08-21T16:09:14;2.60;;;2.33;;
19887;SDS011;10106;51.332;12.336;2022-08-21T16:11:40;6.73;;;2.60;;
19887;SDS011;10106;51.332;12.336;2022-08-21T16:14:07;4.70;;;2.40;;
19887;SDS011;10106;51.332;12.336;2022-08-21T16:16:33;4.77;;;2.73;;